createdAt,value
2022-08-18T00:05:22.150Z,25.00
2022-08-18T00:11:24.653Z,24.90
2022-08-18T00:17:27.039Z,25.00
2022-08-18T00:23:32.791Z,25.00
2022-08-18T00:29:35.195Z,24.90
2022-08-18T00:35:39.396Z,24.90
2022-08-18T00:41:41.583Z,24.80
2022-08-18T00:47:43.837Z,24.70
2022-08-18T00:53:58.948Z,24.60
2022-08-18T01:00:13.376Z,24.60
2022-08-18T01:06:22.528Z,24.50
2022-08-18T01:12:45.415Z,24.50
2022-08-18T01:19:05.755Z,24.60
2022-08-18T01:25:28.509Z,24.50
2022-08-18T01:31:37.944Z,24.40
2022-08-18T01:37:41.716Z,24.30
2022-08-18T01:43:43.869Z,24.10
2022-08-18T01:49:46.060Z,24.00
2022-08-18T01:55:48.826Z,23.90
2022-08-18T02:01:53.041Z,23.90
2022-08-18T02:07:56.035Z,23.80
2022-08-18T02:13:58.323Z,23.70
2022-08-18T02:20:00.578Z,23.60
2022-08-18T02:26:11.405Z,23.50
2022-08-18T02:32:13.803Z,23.50
2022-08-18T02:38:17.547Z,23.40
2022-08-18T02:44:19.875Z,23.30
2022-08-18T02:50:23.030Z,23.20
2022-08-18T02:56:40.263Z,23.20
2022-08-18T03:02:49.106Z,23.20
2022-08-18T03:08:52.598Z,23.20
2022-08-18T03:14:55.428Z,23.20
2022-08-18T03:21:02.367Z,23.20
2022-08-18T03:27:09.762Z,23.20
2022-08-18T03:33:12.178Z,23.10
2022-08-18T03:39:14.582Z,23.10
2022-08-18T03:45:17.777Z,23.10
2022-08-18T03:51:25.642Z,23.20
2022-08-18T03:57:27.735Z,23.30
2022-08-18T04:03:30.439Z,23.40
2022-08-18T04:09:34.678Z,23.60
2022-08-18T04:15:37.685Z,23.80
2022-08-18T04:21:42.543Z,24.20
2022-08-18T04:27:45.011Z,24.30
2022-08-18T04:33:47.292Z,24.60
2022-08-18T04:39:49.717Z,24.80
2022-08-18T04:45:52.076Z,25.00
2022-08-18T04:52:26.935Z,25.40
2022-08-18T04:58:36.865Z,25.60
2022-08-18T05:04:41.691Z,26.10
2022-08-18T05:10:44.305Z,26.10
2022-08-18T05:16:48.539Z,26.50
2022-08-18T05:22:51.950Z,27.10
2022-08-18T05:29:04.120Z,29.30
2022-08-18T05:35:22.586Z,31.20
2022-08-18T05:41:37.720Z,33.40
2022-08-18T05:47:40.154Z,35.00
2022-08-18T05:54:01.711Z,35.20
2022-08-18T06:00:06.878Z,36.20
2022-08-18T06:06:29.924Z,37.40
2022-08-18T06:12:37.848Z,35.20
2022-08-18T06:18:55.908Z,37.20
2022-08-18T06:25:16.041Z,38.50
2022-08-18T06:31:41.049Z,38.30
2022-08-18T06:38:18.827Z,38.00
2022-08-18T06:44:36.248Z,39.40
2022-08-18T06:50:59.653Z,39.70
2022-08-18T06:57:01.774Z,40.80
2022-08-18T07:03:40.211Z,41.90
2022-08-18T07:09:42.331Z,40.90
2022-08-18T07:15:46.030Z,41.10
2022-08-18T07:22:11.502Z,41.10
2022-08-18T07:28:30.838Z,41.10
2022-08-18T07:34:48.951Z,35.90
2022-08-18T07:41:20.896Z,33.80
2022-08-18T07:47:31.803Z,32.70
2022-08-18T07:53:56.298Z,35.70
2022-08-18T08:00:30.546Z,38.70
2022-08-18T08:07:12.861Z,38.10
2022-08-18T08:13:51.763Z,40.50
2022-08-18T08:20:14.098Z,39.20
2022-08-18T08:26:30.981Z,40.00
2022-08-18T08:32:33.209Z,41.80
2022-08-18T08:38:46.409Z,42.60
2022-08-18T08:44:59.444Z,42.80
2022-08-18T08:51:33.186Z,38.40
2022-08-18T08:58:02.819Z,36.70
2022-08-18T09:04:20.163Z,35.80
2022-08-18T09:10:25.275Z,36.30
2022-08-18T09:16:56.166Z,35.40
2022-08-18T09:23:09.111Z,36.70
2022-08-18T09:29:46.240Z,35.60
2022-08-18T09:35:58.062Z,34.30
2022-08-18T09:42:06.150Z,33.40
2022-08-18T09:48:11.358Z,33.10
2022-08-18T10:00:40.869Z,32.20
2022-08-18T10:06:48.397Z,36.10
2022-08-18T10:13:33.836Z,38.40
2022-08-18T10:20:26.822Z,36.90
2022-08-18T10:26:32.083Z,34.80
2022-08-18T10:32:40.437Z,33.00
2022-08-18T10:38:45.899Z,32.20
2022-08-18T10:44:56.086Z,31.80
2022-08-18T10:51:08.519Z,31.90
2022-08-18T10:57:20.186Z,32.10
2022-08-18T11:03:52.170Z,32.70
2022-08-18T11:10:13.298Z,34.00
2022-08-18T11:16:43.079Z,36.70
2022-08-18T11:22:59.301Z,38.00
2022-08-18T11:29:16.611Z,38.70
2022-08-18T11:35:27.820Z,36.80
2022-08-18T11:41:33.874Z,36.90
2022-08-18T11:48:15.657Z,37.90
2022-08-18T11:54:33.862Z,38.60
2022-08-18T12:00:46.146Z,36.50
2022-08-18T12:07:00.731Z,35.20
2022-08-18T12:13:04.129Z,34.70
2022-08-18T12:19:12.183Z,34.20
2022-08-18T12:25:22.372Z,34.00
2022-08-18T12:38:12.880Z,33.00
2022-08-18T12:44:13.442Z,32.90
2022-08-18T12:50:16.527Z,37.00
2022-08-18T12:56:30.836Z,37.50
2022-08-18T13:02:33.265Z,39.90
2022-08-18T13:08:38.064Z,40.00
2022-08-18T13:14:51.317Z,38.80
2022-08-18T13:20:53.963Z,38.10
2022-08-18T13:26:56.479Z,37.60
2022-08-18T13:33:02.347Z,36.70
2022-08-18T13:39:08.838Z,36.10
2022-08-18T13:45:23.055Z,35.70
2022-08-18T13:51:28.572Z,35.00
2022-08-18T13:57:32.231Z,34.60
2022-08-18T14:03:47.464Z,34.00
2022-08-18T14:09:49.993Z,33.80
2022-08-18T14:15:54.878Z,33.50
2022-08-18T14:22:17.584Z,33.40
2022-08-18T14:28:24.849Z,33.40
2022-08-18T14:34:28.538Z,33.00
2022-08-18T14:40:32.763Z,32.80
2022-08-18T14:46:35.083Z,32.70
2022-08-18T14:52:37.841Z,32.60
2022-08-18T14:58:41.988Z,32.40
2022-08-18T15:04:53.250Z,32.40
2022-08-18T15:10:59.084Z,32.20
2022-08-18T15:17:11.872Z,32.20
2022-08-18T15:23:35.352Z,32.20
2022-08-18T15:29:41.609Z,32.10
2022-08-18T15:35:48.139Z,32.00
2022-08-18T15:48:12.516Z,31.80
2022-08-18T15:54:14.979Z,31.70
2022-08-18T16:00:20.669Z,31.40
2022-08-18T16:06:32.394Z,31.10
2022-08-18T16:12:35.049Z,30.90
2022-08-18T16:18:37.423Z,30.80
2022-08-18T16:24:39.660Z,30.60
2022-08-18T16:30:41.854Z,30.40
2022-08-18T16:36:44.100Z,30.30
2022-08-18T16:42:47.221Z,30.10
2022-08-18T16:48:58.018Z,30.00
2022-08-18T16:55:00.638Z,29.90
2022-08-18T17:01:48.828Z,29.70
2022-08-18T17:07:51.703Z,29.60
2022-08-18T17:13:57.461Z,29.30
2022-08-18T17:19:59.607Z,29.30
2022-08-18T17:26:02.658Z,29.10
2022-08-18T17:32:15.767Z,29.00
2022-08-18T17:38:20.950Z,29.00
2022-08-18T17:44:31.109Z,28.90
2022-08-18T17:51:03.030Z,28.70
2022-08-18T17:57:12.913Z,28.50
2022-08-18T18:03:15.225Z,28.30
2022-08-18T18:09:20.376Z,28.20
2022-08-18T18:15:32.177Z,28.10
2022-08-18T18:21:58.902Z,28.00
2022-08-18T18:27:58.547Z,27.90
2022-08-18T18:34:06.482Z,27.80
2022-08-18T18:40:54.194Z,27.70
2022-08-18T18:47:22.644Z,27.70
2022-08-18T18:53:42.712Z,27.60
2022-08-18T19:00:03.495Z,27.50
2022-08-18T19:06:26.593Z,27.40
2022-08-18T19:12:51.560Z,27.20
2022-08-18T19:19:35.660Z,27.20
2022-08-18T19:25:28.970Z,27.10
2022-08-18T19:31:36.250Z,27.00
2022-08-18T19:37:48.522Z,27.00
2022-08-18T19:43:56.097Z,26.90
2022-08-18T19:50:30.769Z,26.80
2022-08-18T19:56:51.105Z,26.70
2022-08-18T20:03:07.582Z,26.70
2022-08-18T20:09:34.501Z,26.60
2022-08-18T20:16:13.990Z,26.50
2022-08-18T20:22:24.919Z,26.40
2022-08-18T20:28:39.834Z,26.30
2022-08-18T20:34:48.285Z,26.20
2022-08-18T20:40:52.508Z,26.10
2022-08-18T20:47:13.606Z,26.00
2022-08-18T20:53:32.752Z,25.90
2022-08-18T21:00:15.867Z,25.80
2022-08-18T21:06:44.810Z,25.70
2022-08-18T21:12:53.974Z,25.80
2022-08-18T21:19:20.059Z,25.70
2022-08-18T21:25:24.109Z,25.50
2022-08-18T21:31:43.807Z,25.40
2022-08-18T21:38:01.695Z,25.40
2022-08-18T21:44:08.814Z,25.40
2022-08-18T21:50:15.729Z,25.30
2022-08-18T21:56:22.139Z,25.30
2022-08-18T22:02:24.415Z,25.20
2022-08-18T22:08:28.941Z,25.10
2022-08-18T22:14:36.248Z,25.00
2022-08-18T22:20:57.428Z,24.90
2022-08-18T22:27:04.616Z,24.90
2022-08-18T22:33:06.743Z,24.90
2022-08-18T22:39:14.592Z,24.80
2022-08-18T22:45:16.944Z,24.80
2022-08-18T22:51:23.208Z,24.70
2022-08-18T22:57:25.737Z,24.70
2022-08-18T23:03:29.234Z,24.60
2022-08-18T23:09:33.854Z,24.50
2022-08-18T23:15:53.923Z,24.40
2022-08-18T23:22:16.223Z,24.30
2022-08-18T23:28:20.198Z,24.20
2022-08-18T23:34:23.932Z,24.20
2022-08-18T23:40:27.636Z,24.10
2022-08-18T23:46:32.235Z,24.00
2022-08-18T23:52:34.550Z,23.90
2022-08-18T23:58:36.746Z,23.90
